createdAt,value
2022-10-14T15:15:13.600Z,21.90
2022-10-14T15:17:30.630Z,21.80
2022-10-14T15:19:38.142Z,21.70
2022-10-14T15:21:46.613Z,21.60
2022-10-14T15:23:53.190Z,21.50
2022-10-14T15:25:58.475Z,21.50
2022-10-14T15:28:08.608Z,21.50
2022-10-14T15:30:36.161Z,21.50
2022-10-14T15:32:44.625Z,21.50
2022-10-14T15:34:46.191Z,21.50
2022-10-14T15:36:56.636Z,21.50
2022-10-14T15:39:06.632Z,21.40
2022-10-14T15:41:09.977Z,21.40
2022-10-14T15:43:17.796Z,21.40
2022-10-14T15:45:26.656Z,21.40
2022-10-14T15:47:35.654Z,21.40
2022-10-14T15:49:40.677Z,21.40
2022-10-14T15:51:48.646Z,21.40
2022-10-14T15:53:58.700Z,21.40
2022-10-14T15:56:06.646Z,21.40
2022-10-14T15:58:08.213Z,21.40
2022-10-14T16:00:10.080Z,21.40
2022-10-14T16:02:34.642Z,21.30
2022-10-14T16:05:00.644Z,21.40
2022-10-14T16:07:04.201Z,21.30
2022-10-14T16:09:12.633Z,21.30
2022-10-14T16:11:33.660Z,21.40
2022-10-14T16:13:55.669Z,21.30
2022-10-14T16:16:01.271Z,21.30
2022-10-14T16:18:09.669Z,21.30
2022-10-14T16:20:12.894Z,21.30
2022-10-14T16:22:14.750Z,21.30
2022-10-14T16:24:27.658Z,21.30
2022-10-14T16:26:35.687Z,21.30
2022-10-14T16:28:43.797Z,21.30
2022-10-14T16:30:55.668Z,21.30
2022-10-14T16:32:57.361Z,21.30
2022-10-14T16:35:05.661Z,21.30
2022-10-14T16:37:08.956Z,21.30
2022-10-14T16:39:11.736Z,21.30
2022-10-14T16:41:19.674Z,21.20
2022-10-14T16:43:21.229Z,21.30
2022-10-14T16:45:29.683Z,21.20
2022-10-14T16:47:37.670Z,21.20
2022-10-14T16:49:40.380Z,21.20
2022-10-14T16:51:43.206Z,21.20
2022-10-14T16:53:51.682Z,21.20
2022-10-14T16:55:57.283Z,21.20
2022-10-14T16:58:05.693Z,21.20
2022-10-14T17:00:07.765Z,21.20
2022-10-14T17:02:21.054Z,21.20
2022-10-14T17:04:23.240Z,21.20
2022-10-14T17:06:25.731Z,21.20
2022-10-14T17:08:33.745Z,21.20
2022-10-14T17:10:35.377Z,21.20
2022-10-14T17:12:44.685Z,21.20
2022-10-14T17:14:59.716Z,21.20
2022-10-14T17:17:07.821Z,21.20
2022-10-14T17:19:17.702Z,21.20
2022-10-14T17:21:19.254Z,21.20
2022-10-14T17:23:20.980Z,21.20
2022-10-14T17:25:28.710Z,21.20
2022-10-14T17:27:30.273Z,21.20
2022-10-14T17:29:38.709Z,21.20
2022-10-14T17:31:47.711Z,21.20
2022-10-14T17:33:56.723Z,21.20
2022-10-14T17:35:59.726Z,21.20
2022-10-14T17:38:01.288Z,21.20
2022-10-14T17:40:09.736Z,21.20
2022-10-14T17:42:11.293Z,21.20
2022-10-14T17:44:19.719Z,21.20
2022-10-14T17:46:23.747Z,21.10
2022-10-14T17:48:25.304Z,21.20
2022-10-14T17:50:34.721Z,21.20
2022-10-14T17:52:36.279Z,21.20
2022-10-14T17:54:44.741Z,21.20
2022-10-14T17:56:52.734Z,21.20
2022-10-14T17:58:56.837Z,21.20
2022-10-14T18:01:10.233Z,21.20
2022-10-14T18:03:18.743Z,21.30
2022-10-14T18:05:26.762Z,21.30
2022-10-14T18:07:28.399Z,21.30
2022-10-14T18:09:36.745Z,21.30
2022-10-14T18:12:07.693Z,21.20
2022-10-14T18:14:26.800Z,21.30
2022-10-14T18:16:34.536Z,21.20
2022-10-14T18:18:43.843Z,21.30
2022-10-14T18:20:51.791Z,21.30
2022-10-14T18:22:53.421Z,21.30
2022-10-14T18:25:01.737Z,21.40
2022-10-14T18:27:04.510Z,21.30
2022-10-14T18:29:08.164Z,21.40
2022-10-14T18:31:15.771Z,21.30
2022-10-14T18:33:23.800Z,21.30
2022-10-14T18:35:25.523Z,21.30
2022-10-14T18:37:27.140Z,21.40
2022-10-14T18:39:34.791Z,21.30
2022-10-14T18:41:43.866Z,21.30
2022-10-14T18:43:52.769Z,21.30
2022-10-14T18:46:01.520Z,21.40
2022-10-14T18:48:03.096Z,21.40
2022-10-14T18:50:11.978Z,21.30
2022-10-14T18:52:13.597Z,21.30
2022-10-14T18:54:25.820Z,21.40
2022-10-14T18:56:30.611Z,21.30
2022-10-14T18:58:32.357Z,21.30
2022-10-14T19:00:41.802Z,21.30
2022-10-14T19:02:49.827Z,21.40
2022-10-14T19:04:51.638Z,21.40
2022-10-14T19:06:59.791Z,21.30
2022-10-14T19:09:02.485Z,21.30
2022-10-14T19:11:11.785Z,21.40
2022-10-14T19:13:13.348Z,21.30
2022-10-14T19:15:44.202Z,21.30
2022-10-14T19:17:50.872Z,21.40
2022-10-14T19:19:55.288Z,21.30
2022-10-14T19:22:05.801Z,21.40
2022-10-14T19:24:08.255Z,21.30
2022-10-14T19:26:19.815Z,21.40
2022-10-14T19:28:21.461Z,21.40
2022-10-14T19:30:23.064Z,21.40
2022-10-14T19:32:30.822Z,21.40
2022-10-14T19:34:32.531Z,21.30
2022-10-14T19:36:36.518Z,21.40
2022-10-14T19:38:45.825Z,21.40
2022-10-14T19:40:53.819Z,21.40
2022-10-14T19:43:03.811Z,21.40
2022-10-14T19:45:12.833Z,21.40
2022-10-14T19:47:14.424Z,21.40
2022-10-14T19:49:22.927Z,21.40
2022-10-14T19:51:25.498Z,21.40
2022-10-14T19:53:33.829Z,21.40
2022-10-14T19:55:35.875Z,21.40
2022-10-14T19:57:44.029Z,21.40
2022-10-14T19:59:45.613Z,21.40
2022-10-14T20:01:53.870Z,21.40
2022-10-14T20:04:02.858Z,21.40
2022-10-14T20:06:05.495Z,21.40
2022-10-14T20:10:20.774Z,21.40
2022-10-14T20:12:22.598Z,21.40
2022-10-14T20:14:30.845Z,21.40
2022-10-14T20:16:39.533Z,21.40
2022-10-14T20:18:50.804Z,21.40
2022-10-14T20:20:52.479Z,21.40
2022-10-14T20:22:54.342Z,21.40
2022-10-14T20:25:02.874Z,21.50
2022-10-14T20:27:06.674Z,21.50
2022-10-14T20:29:17.851Z,21.50
2022-10-14T20:31:21.955Z,21.50
2022-10-14T20:33:24.280Z,21.40
2022-10-14T20:35:32.842Z,21.50
2022-10-14T20:37:34.780Z,21.50
2022-10-14T20:39:42.858Z,21.50
2022-10-14T20:41:44.910Z,21.50
2022-10-14T20:43:47.606Z,21.50
2022-10-14T20:45:55.901Z,21.50
2022-10-14T20:47:57.452Z,21.50
2022-10-14T20:50:05.867Z,21.50
2022-10-14T20:52:09.737Z,21.50
2022-10-14T20:54:17.859Z,21.50
2022-10-14T20:56:25.916Z,21.50
2022-10-14T20:58:27.471Z,21.50
2022-10-14T21:00:35.902Z,21.50
2022-10-14T21:04:49.058Z,21.50
2022-10-14T21:06:50.660Z,21.50
2022-10-14T21:08:58.884Z,21.40
2022-10-14T21:11:01.982Z,21.40
2022-10-14T21:13:09.874Z,21.50
2022-10-14T21:15:18.003Z,21.40
2022-10-14T21:17:32.889Z,21.40
2022-10-14T21:19:34.668Z,21.40
2022-10-14T21:21:42.035Z,21.40
2022-10-14T21:23:50.900Z,21.40
2022-10-14T21:26:03.903Z,21.40
2022-10-14T21:28:05.726Z,21.40
2022-10-14T21:30:07.875Z,21.40
2022-10-14T21:32:15.901Z,21.40
2022-10-14T21:34:17.616Z,21.40
2022-10-14T21:36:25.925Z,21.40
2022-10-14T21:38:29.489Z,21.40
2022-10-14T21:40:37.884Z,21.40
2022-10-14T21:42:45.926Z,21.40
